Terminal Aerodrome Forecast
Issued by NWS

Home | Current Version | Previous Version | Text Only | Print | Product List | Glossary On
Versions: 1 2 3 4 5 6 7 8 9 10 11 12 13 14 15 16 17 18 19 20 21 22 23 24 25 26 27 28 29 30 31 32 33 34 35 36 37
605
FTUS41 KOKX 231740
TAFSWF
TAF
KSWF 231740Z 2318/2424 08015G25KT 6SM BR FEW015 OVC025
      TEMPO 2319/2321 6SM -RA BKN015
     FM232100 08018G30KT 4SM -RAPL BR OVC008
     FM232300 08023G33KT 1/2SM SNPL FG OVC006
     FM240800 06019G25KT 1SM RAPL BR OVC005
     FM241200 04014G20KT 3SM -RA BR OVC008
     FM241600 01013KT 3SM -RA BR OVC008
      AMD NOT SKED=

USA.gov is the U.S. government's official web portal to all federal, state and local government web resources and services.